Time;durP1;ratioP1;P1;durP2;ratioP2;P2;SDS_P1;SDS_P2;PMS_P1;PMS_P2;Temp;Humidity;BMP_temperature;BMP_pressure;BME280_temperature;BME280_humidity;BME280_pressure;Samples;Min_cycle;Max_cycle;Signal;HPM_P1;HPM_P2
2022/09/04 00:02:02;;;;;;;2.10;0.75;;;16.40;80.00;;;;;;6159722;23;20070;-90
2022/09/04 00:04:53;;;;;;;1.42;0.70;;;16.40;80.20;;;;;;6161111;22;20104;-89
2022/09/04 00:07:38;;;;;;;1.73;0.70;;;16.30;80.20;;;;;;6159147;23;20048;-88
2022/09/04 00:10:08;;;;;;;1.58;0.70;;;16.30;80.40;;;;;;6161159;22;20101;-88
2022/09/04 00:13:00;;;;;;;1.52;0.73;;;16.20;80.30;;;;;;6159714;23;20346;-90
2022/09/04 00:15:34;;;;;;;1.98;0.63;;;16.20;80.60;;;;;;6159446;23;20341;-89
2022/09/04 00:18:18;;;;;;;1.77;0.60;;;16.10;80.70;;;;;;6185003;23;20453;-89
2022/09/04 00:21:08;;;;;;;2.00;0.70;;;16.10;81.10;;;;;;6158878;23;20460;-89
2022/09/04 00:23:48;;;;;;;1.83;0.70;;;16.00;81.30;;;;;;6160493;23;20020;-89
2022/09/04 00:26:49;;;;;;;1.77;0.80;;;16.00;81.40;;;;;;6158866;23;20016;-88
2022/09/04 00:29:39;;;;;;;1.92;0.75;;;15.90;81.80;;;;;;6159014;23;20416;-88
2022/09/04 00:32:38;;;;;;;1.95;0.80;;;15.80;81.70;;;;;;6158840;23;20032;-89
2022/09/04 00:35:16;;;;;;;1.30;0.70;;;15.70;82.00;;;;;;6158508;23;20016;-88
2022/09/04 00:37:49;;;;;;;2.30;0.93;;;15.70;82.30;;;;;;6158688;23;20327;-89
2022/09/04 00:40:25;;;;;;;2.13;0.90;;;15.60;82.40;;;;;;6159372;23;20499;-88
2022/09/04 00:42:51;;;;;;;1.75;0.80;;;15.60;82.40;;;;;;6160489;23;20062;-90
2022/09/04 00:45:34;;;;;;;2.00;0.80;;;15.50;82.60;;;;;;6160526;23;20016;-89
2022/09/04 00:48:39;;;;;;;1.50;0.80;;;15.50;82.90;;;;;;6160628;23;20280;-89
2022/09/04 00:51:16;;;;;;;1.70;0.80;;;15.50;83.60;;;;;;6160557;23;20021;-88
2022/09/04 00:54:06;;;;;;;1.30;0.70;;;15.40;83.10;;;;;;6160501;23;20091;-89
2022/09/04 00:57:00;;;;;;;1.58;0.80;;;15.30;83.40;;;;;;6160488;23;20100;-88
2022/09/04 00:59:59;;;;;;;1.58;0.90;;;15.30;83.60;;;;;;6160327;23;20024;-89
2022/09/04 01:03:01;;;;;;;1.98;0.70;;;15.30;83.60;;;;;;6159652;23;20110;-88
2022/09/04 01:05:50;;;;;;;2.47;1.00;;;15.30;83.80;;;;;;6161403;23;20051;-88
2022/09/04 01:08:35;;;;;;;1.95;0.90;;;15.20;83.70;;;;;;6290664;22;20493;-89
2022/09/04 01:11:03;;;;;;;1.80;0.80;;;15.10;83.70;;;;;;6160182;23;20024;-87
2022/09/04 01:13:40;;;;;;;2.63;1.00;;;15.00;83.90;;;;;;6160081;23;20012;-87
2022/09/04 01:16:30;;;;;;;2.03;0.90;;;15.00;84.40;;;;;;6184944;23;20017;-88
2022/09/04 01:19:09;;;;;;;2.80;0.98;;;14.90;84.40;;;;;;6160346;23;20508;-88
2022/09/04 01:22:00;;;;;;;3.05;1.00;;;14.90;84.50;;;;;;6160083;23;20337;-89
2022/09/04 01:24:58;;;;;;;2.88;0.90;;;14.80;84.80;;;;;;6159877;23;20051;-89
2022/09/04 01:27:34;;;;;;;2.42;0.90;;;14.80;84.70;;;;;;6160542;23;20354;-88
2022/09/04 01:30:11;;;;;;;1.35;0.80;;;14.70;85.00;;;;;;6159933;23;20027;-88
2022/09/04 01:32:58;;;;;;;1.88;0.90;;;14.70;85.20;;;;;;6159781;23;20028;-88
2022/09/04 01:35:40;;;;;;;;;;;14.60;85.50;;;;;;6160844;23;20068;-88
2022/09/04 01:38:15;;;;;;;1.88;0.82;;;14.60;86.30;;;;;;6160391;23;19933;-88
2022/09/04 01:40:41;;;;;;;2.20;0.90;;;14.60;85.60;;;;;;6159942;23;20012;-90
2022/09/04 01:43:10;;;;;;;1.10;0.70;;;14.60;85.60;;;;;;6159901;23;20039;-88
2022/09/04 01:46:06;;;;;;;1.88;0.70;;;14.50;85.50;;;;;;6159879;23;20017;-90
2022/09/04 01:48:47;;;;;;;1.65;0.85;;;14.50;85.70;;;;;;6160315;23;20021;-90
2022/09/04 01:51:19;;;;;;;3.05;0.95;;;14.60;85.80;;;;;;6160390;23;20024;-88
2022/09/04 01:54:19;;;;;;;2.22;1.05;;;14.60;85.80;;;;;;6160353;23;20044;-89
2022/09/04 01:56:57;;;;;;;2.25;0.98;;;14.60;86.00;;;;;;6163082;23;20020;-89
2022/09/04 01:59:31;;;;;;;2.10;0.93;;;14.60;86.10;;;;;;6159994;23;20066;-89
2022/09/04 02:02:00;;;;;;;2.95;0.90;;;14.60;86.20;;;;;;6160237;23;20073;-90
2022/09/04 02:04:45;;;;;;;2.53;1.10;;;14.60;86.00;;;;;;6184976;23;20013;-88
2022/09/04 02:07:32;;;;;;;2.45;1.25;;;14.60;86.10;;;;;;6160099;23;20013;-89
2022/09/04 02:10:17;;;;;;;1.67;0.90;;;14.60;85.90;;;;;;6184507;23;20016;-91
2022/09/04 02:12:49;;;;;;;2.70;0.70;;;14.70;86.00;;;;;;6160432;22;20012;-89
2022/09/04 02:15:36;;;;;;;2.20;0.88;;;14.70;86.00;;;;;;6161658;22;20052;-88
2022/09/04 02:18:36;;;;;;;2.15;0.85;;;14.70;86.20;;;;;;6161524;23;20016;-89
2022/09/04 02:21:13;;;;;;;2.70;1.00;;;14.70;86.60;;;;;;6161299;23;20022;-89
2022/09/04 02:23:50;;;;;;;1.65;0.80;;;14.70;86.50;;;;;;6161215;23;20076;-89
2022/09/04 02:26:19;;;;;;;;;;;14.70;86.70;;;;;;6161591;23;20020;-88
2022/09/04 02:29:11;;;;;;;2.60;0.90;;;14.70;87.80;;;;;;6161564;22;19916;-88
2022/09/04 02:32:02;;;;;;;1.83;0.75;;;14.60;87.00;;;;;;6161160;23;20480;-87
2022/09/04 02:34:50;;;;;;;2.03;1.17;;;14.50;86.90;;;;;;6136711;23;20039;-87
2022/09/04 02:37:22;;;;;;;3.08;0.95;;;14.50;86.80;;;;;;6160744;23;20017;-86
2022/09/04 02:39:59;;;;;;;1.85;0.85;;;14.30;86.80;;;;;;6160780;22;20024;-87
2022/09/04 02:42:42;;;;;;;3.08;0.82;;;14.30;87.00;;;;;;6160868;23;20020;-87
2022/09/04 02:54:58;;;;;;;3.50;1.10;;;13.90;88.00;;;;;;6143027;23;19924;-91
2022/09/04 02:57:57;;;;;;;1.92;0.82;;;13.90;88.10;;;;;;6127022;23;20100;-90
2022/09/04 03:01:13;;;;;;;2.30;1.10;;;13.80;88.30;;;;;;6126847;23;20022;-92
2022/09/04 03:03:57;;;;;;;2.13;1.10;;;13.80;88.70;;;;;;6083374;23;20079;-90
2022/09/04 03:09:04;;;;;;;3.05;1.00;;;13.70;88.60;;;;;;6140966;23;20022;-87
2022/09/04 03:11:42;;;;;;;2.90;1.00;;;13.70;89.00;;;;;;6102156;23;20017;-87
2022/09/04 03:14:16;;;;;;;1.67;0.90;;;13.70;89.00;;;;;;6102187;23;20113;-87
2022/09/04 03:17:10;;;;;;;2.28;1.15;;;13.60;89.20;;;;;;6126403;23;20017;-88
2022/09/04 03:19:50;;;;;;;2.85;0.85;;;13.60;89.40;;;;;;6101968;23;20021;-87
2022/09/04 03:26:34;;;;;;;2.67;1.10;;;13.60;89.70;;;;;;6153973;23;20079;-90
2022/09/04 03:29:34;;;;;;;2.53;1.00;;;13.50;89.70;;;;;;6119945;23;20028;-88
2022/09/04 03:32:04;;;;;;;3.20;1.40;;;13.50;89.90;;;;;;6101337;23;20025;-91
2022/09/04 03:34:42;;;;;;;2.78;1.20;;;13.50;90.00;;;;;;6101660;23;20025;-91
2022/09/04 03:37:31;;;;;;;2.05;1.13;;;13.50;90.10;;;;;;6101782;23;20068;-90
2022/09/04 03:40:08;;;;;;;3.40;1.10;;;13.50;90.10;;;;;;6101768;23;20018;-89
2022/09/04 03:43:21;;;;;;;2.45;0.90;;;13.50;90.10;;;;;;6102810;23;20481;-89
2022/09/04 03:46:05;;;;;;;2.63;1.10;;;13.60;90.30;;;;;;6128797;22;20057;-89
2022/09/04 03:48:50;;;;;;;2.95;1.10;;;13.60;90.40;;;;;;6102132;23;20022;-89
2022/09/04 03:51:37;;;;;;;1.95;1.10;;;13.60;90.30;;;;;;6101763;23;20120;-88
2022/09/04 03:54:22;;;;;;;1.90;0.95;;;13.70;90.60;;;;;;6102045;23;20064;-88
2022/09/04 03:57:03;;;;;;;2.58;1.13;;;13.70;90.50;;;;;;6101991;23;20018;-89
2022/09/04 03:59:53;;;;;;;1.88;0.90;;;13.70;90.60;;;;;;6126570;23;20469;-90
2022/09/04 04:02:35;;;;;;;3.78;1.02;;;13.70;90.70;;;;;;6133053;23;20018;-86
2022/09/04 04:05:55;;;;;;;3.33;1.00;;;13.80;90.80;;;;;;6107010;23;20029;-88
2022/09/04 04:08:55;;;;;;;2.58;1.10;;;13.80;90.70;;;;;;6157794;23;20350;-88
2022/09/04 04:27:20;;;;;;;2.20;1.00;;;13.50;90.60;;;;;;6335626;22;20030;-90
2022/09/04 04:30:11;;;;;;;1.80;0.90;;;13.40;90.60;;;;;;6285868;22;20464;-90
2022/09/04 04:32:49;;;;;;;2.35;1.00;;;13.40;90.70;;;;;;6286024;22;20018;-89
2022/09/04 04:35:56;;;;;;;2.65;1.05;;;13.30;90.80;;;;;;6285665;22;20071;-88
2022/09/04 04:43:43;;;;;;;2.10;1.00;;;13.30;91.30;;;;;;6211372;23;20020;-91
2022/09/04 04:46:21;;;;;;;4.05;1.15;;;13.30;91.20;;;;;;6161180;22;20027;-92
2022/09/04 04:49:29;;;;;;;2.67;1.20;;;13.30;91.20;;;;;;6160339;23;20024;-93
2022/09/04 05:05:49;;;;;;;2.70;1.10;;;13.10;91.40;;;;;;6211708;23;20118;-90
2022/09/04 05:08:25;;;;;;;2.40;1.00;;;13.20;91.50;;;;;;6160610;23;20434;-93
2022/09/04 05:11:41;;;;;;;2.95;1.25;;;13.10;91.40;;;;;;6160836;23;20051;-91
2022/09/04 05:14:25;;;;;;;3.85;1.40;;;13.10;91.60;;;;;;6163844;23;21095;-90
2022/09/04 05:16:59;;;;;;;3.20;1.30;;;13.10;91.80;;;;;;6165062;22;20070;-90
2022/09/04 05:19:38;;;;;;;2.67;1.30;;;13.10;91.80;;;;;;6162024;22;20017;-90
2022/09/04 05:22:28;;;;;;;2.03;1.05;;;13.10;91.90;;;;;;6161574;23;20024;-92
2022/09/04 05:25:06;;;;;;;2.38;1.15;;;13.10;92.00;;;;;;6161240;23;20027;-92
2022/09/04 05:27:42;;;;;;;2.80;1.10;;;13.10;91.90;;;;;;6160681;23;20056;-94
2022/09/04 05:30:17;;;;;;;3.28;1.33;;;13.10;91.90;;;;;;6160689;23;20077;-93
2022/09/04 05:33:11;;;;;;;3.70;1.35;;;13.10;91.90;;;;;;6160550;23;20039;-95
2022/09/04 05:35:46;;;;;;;2.83;1.35;;;13.10;91.90;;;;;;6160434;23;20013;-93
2022/09/04 05:38:32;;;;;;;2.88;1.10;;;13.10;92.00;;;;;;6159927;23;20391;-95
2022/09/04 05:41:06;;;;;;;2.75;1.17;;;13.20;92.00;;;;;;6158569;23;20396;-93
2022/09/04 05:43:48;;;;;;;2.13;1.00;;;13.20;92.00;;;;;;6159217;23;20017;-95
2022/09/04 05:46:38;;;;;;;3.03;1.20;;;13.30;92.10;;;;;;6160404;23;20027;-93
2022/09/04 05:49:25;;;;;;;2.80;1.10;;;13.30;92.30;;;;;;6161584;23;20074;-95
2022/09/04 05:52:00;;;;;;;2.80;1.00;;;13.40;92.30;;;;;;6161504;23;20020;-93
2022/09/04 05:55:06;;;;;;;2.53;1.20;;;13.50;92.20;;;;;;6161682;23;20016;-94
2022/09/04 05:57:44;;;;;;;2.88;1.02;;;13.50;92.20;;;;;;6162007;23;20023;-93
2022/09/04 06:00:13;;;;;;;3.05;1.38;;;13.60;92.20;;;;;;6161987;23;20019;-96
2022/09/04 06:03:10;;;;;;;4.38;1.35;;;13.60;92.10;;;;;;6160513;23;20052;-92
2022/09/04 06:06:01;;;;;;;2.53;1.30;;;13.70;92.10;;;;;;6162232;23;20019;-92
2022/09/04 06:08:36;;;;;;;3.25;1.27;;;13.80;92.10;;;;;;6164746;23;20020;-91
2022/09/04 06:11:39;;;;;;;2.72;1.15;;;13.80;92.10;;;;;;6165274;23;20056;-96
2022/09/04 06:14:29;;;;;;;3.95;1.08;;;13.90;92.10;;;;;;6186203;23;20028;-91
2022/09/04 06:17:01;;;;;;;2.38;1.00;;;14.00;92.00;;;;;;6161850;23;20078;-92
2022/09/04 06:19:49;;;;;;;2.28;1.10;;;14.10;92.00;;;;;;6161945;23;20353;-90
2022/09/04 06:22:18;;;;;;;2.63;0.90;;;14.10;92.00;;;;;;6161381;23;20028;-94
2022/09/04 06:25:28;;;;;;;3.33;1.23;;;14.20;92.10;;;;;;6160525;23;20379;-95
2022/09/04 06:28:18;;;;;;;3.95;1.55;;;14.30;92.10;;;;;;6189719;23;20017;-94
2022/09/04 06:31:17;;;;;;;2.55;1.05;;;14.30;92.00;;;;;;6159761;23;20023;-87
2022/09/04 06:34:20;;;;;;;2.47;1.10;;;14.30;92.10;;;;;;6160924;23;20028;-93
2022/09/04 06:37:03;;;;;;;2.47;1.17;;;14.30;92.00;;;;;;6159508;23;20039;-92
2022/09/04 06:42:21;;;;;;;2.10;1.00;;;14.40;92.10;;;;;;6212023;23;20021;-92
2022/09/04 06:45:13;;;;;;;2.58;1.20;;;14.50;92.10;;;;;;6161515;22;20024;-92
2022/09/04 06:48:30;;;;;;;2.40;1.10;;;14.70;92.20;;;;;;6161023;23;20020;-94
2022/09/04 06:51:27;;;;;;;2.03;0.98;;;14.80;92.20;;;;;;6164835;23;20017;-94
2022/09/04 06:54:03;;;;;;;2.75;1.08;;;14.90;92.30;;;;;;6160901;23;20023;-94
2022/09/04 06:56:47;;;;;;;3.00;1.60;;;15.10;92.10;;;;;;6187240;23;20023;-95
2022/09/04 06:59:38;;;;;;;2.47;1.02;;;15.20;92.10;;;;;;6162471;22;20099;-96
2022/09/04 07:02:21;;;;;;;2.28;1.10;;;15.40;92.10;;;;;;6161364;23;20043;-94
2022/09/04 07:04:59;;;;;;;2.92;1.30;;;15.50;92.00;;;;;;6161440;23;20335;-96
2022/09/04 07:08:04;;;;;;;3.33;1.33;;;15.60;92.00;;;;;;6161622;23;20468;-94
2022/09/04 07:10:33;;;;;;;3.30;1.38;;;15.70;92.00;;;;;;6159385;23;20469;-95
2022/09/04 07:13:30;;;;;;;2.47;1.02;;;15.80;92.00;;;;;;6160893;23;20012;-90
2022/09/04 07:16:23;;;;;;;3.55;1.23;;;15.90;91.90;;;;;;6160035;23;20039;-94
2022/09/04 07:18:58;;;;;;;2.55;1.20;;;16.10;91.80;;;;;;6161778;23;20047;-90
2022/09/04 07:22:16;;;;;;;2.42;1.30;;;16.20;91.60;;;;;;6162063;23;20021;-95
2022/09/04 07:24:58;;;;;;;2.87;1.20;;;16.30;91.50;;;;;;6186431;23;20433;-92
2022/09/04 07:27:26;;;;;;;3.25;1.10;;;16.50;91.50;;;;;;6160914;22;20457;-91
2022/09/04 07:30:24;;;;;;;2.47;1.05;;;16.50;91.40;;;;;;6160553;22;20017;-91
2022/09/04 07:33:18;;;;;;;2.83;1.17;;;16.60;91.40;;;;;;6160508;23;20013;-93
2022/09/04 07:35:55;;;;;;;2.28;1.20;;;16.80;91.40;;;;;;6184622;23;20450;-90
2022/09/04 07:38:54;;;;;;;2.45;1.40;;;16.90;91.10;;;;;;6160180;23;20472;-90
2022/09/04 07:41:38;;;;;;;2.28;1.10;;;17.00;91.10;;;;;;6158902;23;20024;-92
2022/09/04 07:44:14;;;;;;;2.45;1.17;;;17.10;91.00;;;;;;6161097;23;20021;-93
2022/09/04 07:47:11;;;;;;;2.47;1.13;;;17.20;91.00;;;;;;6185618;23;20017;-93
2022/09/04 07:49:51;;;;;;;2.40;1.13;;;17.20;90.90;;;;;;6160792;23;20013;-93
2022/09/04 07:52:43;;;;;;;2.80;1.20;;;17.30;90.90;;;;;;6186137;23;20051;-89
2022/09/04 07:55:20;;;;;;;2.50;1.13;;;17.40;90.90;;;;;;6185778;23;20016;-92
2022/09/04 07:58:13;;;;;;;2.75;1.38;;;17.40;90.80;;;;;;6186089;23;20060;-92
2022/09/04 08:01:05;;;;;;;3.08;1.35;;;17.50;90.90;;;;;;6160502;23;20524;-90
2022/09/04 08:03:40;;;;;;;3.13;1.15;;;17.60;90.80;;;;;;6160214;22;20494;-90
2022/09/04 08:06:06;;;;;;;2.88;1.23;;;17.70;91.00;;;;;;6160966;23;20020;-92
2022/09/04 08:08:59;;;;;;;3.00;1.10;;;17.80;90.70;;;;;;6160301;23;20104;-93
2022/09/04 08:12:04;;;;;;;2.13;0.93;;;17.80;90.60;;;;;;6159819;23;20048;-93
2022/09/04 08:14:59;;;;;;;2.40;1.05;;;17.90;90.50;;;;;;6181338;23;20017;-92
2022/09/04 08:17:32;;;;;;;2.35;1.10;;;17.90;90.50;;;;;;6159253;23;20103;-92
2022/09/04 08:20:22;;;;;;;2.22;1.00;;;18.00;90.50;;;;;;6184839;22;20021;-91
2022/09/04 08:23:07;;;;;;;2.45;1.05;;;18.10;90.50;;;;;;6185933;23;20028;-91
2022/09/04 08:26:06;;;;;;;2.35;1.00;;;18.20;90.40;;;;;;6159357;23;20016;-92
2022/09/04 08:32:53;;;;;;;4.18;1.20;;;18.30;90.30;;;;;;6211073;23;20059;-86
2022/09/04 08:35:33;;;;;;;2.80;1.20;;;18.40;90.20;;;;;;6158626;23;20021;-86
2022/09/04 08:38:12;;;;;;;1.80;0.80;;;18.50;90.20;;;;;;6159957;23;20333;-86
2022/09/04 08:41:18;;;;;;;1.98;1.02;;;18.60;90.20;;;;;;6160180;22;20052;-88
2022/09/04 08:44:02;;;;;;;2.70;0.90;;;18.70;90.20;;;;;;6159785;23;20017;-87
2022/09/04 08:46:31;;;;;;;2.72;0.93;;;18.80;90.20;;;;;;6159651;22;20020;-86
2022/09/04 08:49:15;;;;;;;1.98;0.90;;;18.90;90.20;;;;;;6159768;23;20016;-88
2022/09/04 08:52:11;;;;;;;2.83;1.05;;;18.90;90.20;;;;;;6160221;23;20095;-87
2022/09/04 08:55:02;;;;;;;2.17;0.93;;;19.00;90.00;;;;;;6159634;23;20453;-88
2022/09/04 08:58:05;;;;;;;2.33;0.90;;;19.00;90.00;;;;;;6159877;23;20069;-86
2022/09/04 09:00:50;;;;;;;3.00;1.33;;;19.20;90.00;;;;;;6160575;22;20016;-86
2022/09/04 09:03:53;;;;;;;2.35;1.02;;;19.30;89.80;;;;;;6160849;22;20020;-87
2022/09/04 09:07:00;;;;;;;1.95;0.90;;;19.40;89.70;;;;;;6159325;23;20013;-86
2022/09/04 09:10:03;;;;;;;2.97;1.33;;;19.40;90.00;;;;;;6159570;23;20032;-88
2022/09/04 09:13:10;;;;;;;2.08;0.80;;;19.50;89.40;;;;;;6158588;22;20024;-88
2022/09/04 09:15:47;;;;;;;2.45;0.90;;;19.50;89.40;;;;;;6157642;23;20020;-88
2022/09/04 09:18:36;;;;;;;1.75;0.90;;;19.60;89.40;;;;;;6158772;22;20084;-87
2022/09/04 09:21:07;;;;;;;2.83;0.80;;;19.70;89.30;;;;;;6184462;23;20392;-88
2022/09/04 09:23:52;;;;;;;1.55;0.80;;;19.80;89.10;;;;;;6161000;23;20087;-88
2022/09/04 09:26:33;;;;;;;1.48;0.80;;;19.80;88.80;;;;;;6161174;23;20017;-87
2022/09/04 09:29:20;;;;;;;2.08;1.00;;;19.90;88.90;;;;;;6161141;23;20027;-88
2022/09/04 09:32:05;;;;;;;;;;;20.00;88.90;;;;;;6161709;22;20016;-88
2022/09/04 09:35:14;;;;;;;1.45;0.77;;;20.00;89.00;;;;;;6185851;23;19915;-91
2022/09/04 09:37:43;;;;;;;2.70;0.82;;;20.10;88.80;;;;;;6185773;23;20341;-87
2022/09/04 09:40:36;;;;;;;2.72;0.90;;;20.20;88.50;;;;;;6161426;23;20034;-89
2022/09/04 09:43:04;;;;;;;3.10;0.75;;;20.30;88.30;;;;;;6185953;22;20024;-90
2022/09/04 09:45:39;;;;;;;1.77;0.80;;;20.40;88.20;;;;;;6160649;23;20032;-88
2022/09/04 09:48:42;;;;;;;1.80;0.75;;;20.50;88.10;;;;;;6161104;23;20025;-86
2022/09/04 09:51:46;;;;;;;2.10;0.90;;;20.60;87.90;;;;;;6160815;23;20028;-90
2022/09/04 09:54:37;;;;;;;2.03;0.95;;;20.70;87.80;;;;;;6161226;22;20016;-88
2022/09/04 09:57:32;;;;;;;1.75;1.00;;;20.80;87.80;;;;;;6161742;22;20024;-89
2022/09/04 10:00:04;;;;;;;2.33;1.05;;;20.90;87.30;;;;;;6161007;23;20020;-89
2022/09/04 10:02:55;;;;;;;2.63;1.20;;;21.00;87.20;;;;;;6161720;22;20023;-90
2022/09/04 10:05:38;;;;;;;2.10;1.05;;;21.10;86.80;;;;;;6161152;23;20052;-91
2022/09/04 10:08:33;;;;;;;1.70;0.95;;;21.20;86.50;;;;;;6161420;22;20016;-88
2022/09/04 10:11:51;;;;;;;1.80;0.75;;;21.20;86.10;;;;;;6161205;22;20016;-90
2022/09/04 10:14:54;;;;;;;1.65;0.75;;;21.30;85.40;;;;;;6185791;23;20070;-87
2022/09/04 10:17:56;;;;;;;2.40;1.00;;;21.40;85.50;;;;;;6160822;23;20062;-88
2022/09/04 10:20:59;;;;;;;1.80;0.70;;;21.50;85.50;;;;;;6159938;23;20016;-90
2022/09/04 10:23:34;;;;;;;2.63;0.80;;;21.60;85.40;;;;;;6159273;22;20024;-88
2022/09/04 10:26:38;;;;;;;2.10;0.90;;;21.70;84.70;;;;;;6183454;23;20104;-88
2022/09/04 10:29:30;;;;;;;1.33;0.60;;;21.80;84.30;;;;;;6185653;23;20013;-88
2022/09/04 10:32:01;;;;;;;1.40;0.68;;;21.90;84.10;;;;;;6161099;23;20059;-91
2022/09/04 10:34:58;;;;;;;1.88;0.80;;;22.00;84.20;;;;;;6161216;22;20469;-88
2022/09/04 10:38:00;;;;;;;2.17;0.90;;;22.10;83.30;;;;;;6161061;23;20016;-87
2022/09/04 10:41:14;;;;;;;1.52;0.90;;;22.30;82.70;;;;;;6183679;23;20070;-92
2022/09/04 10:44:11;;;;;;;2.95;0.85;;;22.40;82.80;;;;;;6157991;23;20027;-88
2022/09/04 10:47:04;;;;;;;1.25;0.75;;;22.50;82.30;;;;;;6182104;23;20301;-89
2022/09/04 10:49:36;;;;;;;1.65;0.85;;;22.50;81.70;;;;;;6156672;23;20020;-90
2022/09/04 10:52:33;;;;;;;2.70;0.88;;;22.60;81.40;;;;;;6159474;22;20024;-88
2022/09/04 10:55:35;;;;;;;1.85;0.80;;;22.70;81.40;;;;;;6159130;23;20056;-87
2022/09/04 10:58:22;;;;;;;2.03;0.70;;;22.70;81.00;;;;;;6210891;23;20016;-89
2022/09/04 11:01:26;;;;;;;1.77;0.90;;;22.80;81.30;;;;;;6160389;23;20046;-91
2022/09/04 11:04:18;;;;;;;1.98;0.82;;;22.90;80.70;;;;;;6184342;23;20323;-87
2022/09/04 11:07:00;;;;;;;2.50;0.88;;;23.00;80.70;;;;;;6185784;23;20025;-92
2022/09/04 11:09:31;;;;;;;2.75;1.20;;;23.10;80.60;;;;;;6210545;23;20028;-90
2022/09/04 11:12:15;;;;;;;2.85;0.82;;;23.10;79.80;;;;;;6160964;23;20025;-85
2022/09/04 11:15:18;;;;;;;2.28;0.93;;;23.10;79.40;;;;;;6161926;23;20017;-91
2022/09/04 11:18:12;;;;;;;1.42;0.80;;;23.20;79.00;;;;;;6161474;23;20044;-93
2022/09/04 11:20:59;;;;;;;1.20;0.70;;;23.30;78.50;;;;;;6161147;23;20024;-92
2022/09/04 11:23:37;;;;;;;1.45;0.90;;;23.40;78.20;;;;;;6160789;22;20021;-88
2022/09/04 11:26:25;;;;;;;1.73;0.80;;;23.50;78.90;;;;;;6159749;23;20043;-87
2022/09/04 11:28:59;;;;;;;1.23;0.70;;;23.60;78.80;;;;;;6185433;23;20020;-88
2022/09/04 11:31:38;;;;;;;1.60;0.80;;;23.70;78.70;;;;;;6185390;23;20105;-90
2022/09/04 11:34:19;;;;;;;2.33;1.13;;;23.80;78.10;;;;;;6185598;23;20024;-88
2022/09/04 11:36:46;;;;;;;1.58;0.70;;;23.90;78.20;;;;;;6160729;23;20024;-87
2022/09/04 11:39:45;;;;;;;2.58;0.85;;;24.00;78.30;;;;;;6160248;23;20025;-87
2022/09/04 11:42:40;;;;;;;3.55;0.73;;;24.10;77.60;;;;;;6160220;23;20017;-88
2022/09/04 11:45:06;;;;;;;1.85;0.90;;;24.20;77.40;;;;;;6185525;23;20025;-86
2022/09/04 11:47:43;;;;;;;1.90;0.90;;;24.40;77.20;;;;;;6184967;23;20046;-86
2022/09/04 11:50:17;;;;;;;1.45;0.73;;;24.40;77.20;;;;;;6159906;23;20012;-88
2022/09/04 11:52:55;;;;;;;3.83;0.98;;;24.40;77.20;;;;;;6160179;23;20113;-86
2022/09/04 11:55:50;;;;;;;2.38;0.98;;;24.50;76.90;;;;;;6160179;22;20017;-87
2022/09/04 11:58:35;;;;;;;1.70;0.80;;;24.50;76.60;;;;;;6161379;23;20462;-85
2022/09/04 12:01:15;;;;;;;2.10;1.00;;;24.50;76.20;;;;;;6184833;22;20450;-85
2022/09/04 12:03:58;;;;;;;2.03;0.80;;;24.60;76.60;;;;;;6160178;23;20521;-86
2022/09/04 12:06:43;;;;;;;2.25;0.70;;;24.60;76.20;;;;;;6185061;23;20069;-87
2022/09/04 12:09:33;;;;;;;1.88;0.70;;;24.60;76.60;;;;;;6160377;23;20054;-87
2022/09/04 12:12:21;;;;;;;1.73;0.77;;;24.70;76.60;;;;;;6184933;23;20020;-87
2022/09/04 12:15:05;;;;;;;4.85;1.52;;;24.80;76.50;;;;;;6184536;23;20017;-87
2022/09/04 12:18:07;;;;;;;2.70;1.00;;;24.90;75.90;;;;;;6160093;23;20017;-88
2022/09/04 12:20:39;;;;;;;1.33;0.70;;;25.00;75.70;;;;;;6160205;23;20016;-87
2022/09/04 12:23:20;;;;;;;3.35;1.10;;;25.00;75.30;;;;;;6184796;23;20111;-87
2022/09/04 12:26:21;;;;;;;1.52;0.90;;;25.10;75.00;;;;;;6211450;23;20453;-88
2022/09/04 12:28:46;;;;;;;3.08;0.80;;;25.20;74.50;;;;;;6184538;23;20016;-90
2022/09/04 12:31:30;;;;;;;;;;;25.20;74.40;;;;;;6160686;23;20027;-90
2022/09/04 12:34:09;;;;;;;2.17;0.80;;;25.20;73.50;;;;;;6185123;23;19980;-88
2022/09/04 12:36:47;;;;;;;2.42;0.90;;;25.20;74.00;;;;;;6160197;23;20024;-88
2022/09/04 12:39:34;;;;;;;1.98;0.90;;;25.10;74.30;;;;;;6184734;23;20020;-86
2022/09/04 12:42:27;;;;;;;2.30;0.98;;;25.20;73.50;;;;;;6184725;23;20008;-89
2022/09/04 12:45:17;;;;;;;1.65;0.70;;;25.20;72.10;;;;;;6211279;23;20029;-87
2022/09/04 12:47:59;;;;;;;1.45;0.70;;;25.20;73.70;;;;;;6211188;23;20065;-88
2022/09/04 12:50:38;;;;;;;1.95;0.70;;;25.20;73.20;;;;;;6210330;22;20016;-87
2022/09/04 12:53:04;;;;;;;2.53;0.80;;;25.20;73.50;;;;;;6158841;23;20050;-87
2022/09/04 12:55:48;;;;;;;;;;;25.30;73.80;;;;;;6185280;23;20020;-86
2022/09/04 12:58:20;;;;;;;1.38;0.70;;;25.30;72.60;;;;;;6160013;23;19924;-88
2022/09/04 13:01:12;;;;;;;2.55;1.00;;;25.30;73.00;;;;;;6160212;22;20013;-86
2022/09/04 13:03:53;;;;;;;2.25;0.90;;;25.30;72.60;;;;;;6184862;23;20065;-87
2022/09/04 13:06:26;;;;;;;1.60;0.70;;;25.30;73.50;;;;;;6184498;23;20017;-87
2022/09/04 13:09:12;;;;;;;2.00;0.80;;;25.50;73.00;;;;;;6184588;23;20036;-88
2022/09/04 13:11:44;;;;;;;1.60;0.77;;;25.50;72.50;;;;;;6159790;22;20021;-87
2022/09/04 13:14:10;;;;;;;2.03;0.90;;;25.70;72.80;;;;;;6182792;23;20024;-88
2022/09/04 13:17:07;;;;;;;2.42;0.98;;;25.70;72.40;;;;;;6184686;22;20074;-87
2022/09/04 13:19:51;;;;;;;1.83;0.83;;;25.80;71.80;;;;;;6184642;23;20138;-87
2022/09/04 13:22:45;;;;;;;3.35;0.90;;;25.80;72.00;;;;;;6158474;23;20103;-88
2022/09/04 13:25:41;;;;;;;2.10;0.90;;;25.90;71.60;;;;;;6185286;23;20021;-89
2022/09/04 13:28:36;;;;;;;1.55;0.70;;;25.90;71.40;;;;;;6159187;23;20024;-89
2022/09/04 13:31:37;;;;;;;1.88;0.90;;;25.90;71.20;;;;;;6158906;23;20080;-89
2022/09/04 13:34:34;;;;;;;1.52;0.80;;;25.90;71.90;;;;;;6160136;23;20027;-89
2022/09/04 13:37:03;;;;;;;2.08;0.90;;;25.90;71.30;;;;;;6186440;23;20024;-89
2022/09/04 13:39:54;;;;;;;1.70;0.80;;;25.90;71.30;;;;;;6157603;23;20096;-88
2022/09/04 13:42:53;;;;;;;1.67;0.90;;;25.90;70.70;;;;;;6159447;23;20439;-90
2022/09/04 13:48:06;;;;;;;2.90;0.90;;;25.90;70.70;;;;;;6209701;23;20025;-89
2022/09/04 13:50:34;;;;;;;2.92;0.80;;;25.90;70.50;;;;;;6159661;23;20460;-89
2022/09/04 13:53:16;;;;;;;2.00;0.90;;;25.80;70.80;;;;;;6159664;23;20013;-88
2022/09/04 13:55:53;;;;;;;1.10;0.63;;;25.80;70.50;;;;;;6159512;23;20024;-87
2022/09/04 13:58:50;;;;;;;2.13;0.90;;;25.80;70.60;;;;;;6159804;23;20013;-89
2022/09/04 14:01:28;;;;;;;2.33;0.90;;;25.80;70.50;;;;;;6160193;23;20027;-90
2022/09/04 14:04:03;;;;;;;2.13;1.00;;;25.80;70.50;;;;;;6159610;22;20081;-88
2022/09/04 14:06:31;;;;;;;1.88;1.02;;;25.70;70.50;;;;;;6159418;23;20017;-89
2022/09/04 14:09:17;;;;;;;1.85;0.90;;;25.70;70.90;;;;;;6160369;23;20046;-88
2022/09/04 14:12:35;;;;;;;1.73;0.90;;;25.70;70.90;;;;;;6160900;23;20042;-92
2022/09/04 14:17:59;;;;;;;1.77;0.80;;;25.60;69.70;;;;;;6193928;22;19915;-89
2022/09/04 14:20:39;;;;;;;1.67;0.88;;;25.60;70.70;;;;;;6160868;23;20025;-89
2022/09/04 14:23:21;;;;;;;1.23;0.70;;;25.60;70.60;;;;;;6185697;22;20048;-88
2022/09/04 14:26:27;;;;;;;2.17;1.00;;;25.50;70.40;;;;;;6186326;23;20048;-92
2022/09/04 14:29:12;;;;;;;2.95;1.05;;;25.50;70.50;;;;;;6161278;23;20013;-92
2022/09/04 14:31:51;;;;;;;1.73;0.98;;;25.50;70.70;;;;;;6160940;23;20025;-87
2022/09/04 14:34:32;;;;;;;2.25;1.02;;;25.50;69.90;;;;;;6185317;23;20017;-87
2022/09/04 14:37:16;;;;;;;2.33;0.90;;;25.50;69.90;;;;;;6160902;23;20021;-89
2022/09/04 14:39:57;;;;;;;1.77;0.90;;;25.50;70.10;;;;;;6161199;23;20066;-88
2022/09/04 14:42:41;;;;;;;1.95;1.00;;;25.40;70.00;;;;;;6161056;23;20028;-88
2022/09/04 14:45:08;;;;;;;1.77;0.80;;;25.40;70.10;;;;;;6160984;23;20376;-88
2022/09/04 14:47:42;;;;;;;2.30;0.98;;;25.40;70.40;;;;;;6160875;23;20021;-90
2022/09/04 14:50:15;;;;;;;2.00;0.70;;;25.40;70.40;;;;;;6160807;23;20513;-88
2022/09/04 14:52:46;;;;;;;1.67;0.70;;;25.30;70.20;;;;;;6161002;23;20408;-89
2022/09/04 14:55:16;;;;;;;1.95;0.75;;;25.30;70.30;;;;;;6160824;23;20096;-89
2022/09/04 14:57:49;;;;;;;1.95;0.90;;;25.20;70.40;;;;;;6161180;23;20020;-89
2022/09/04 15:00:51;;;;;;;1.40;0.77;;;25.20;70.60;;;;;;6161009;23;20054;-88
2022/09/04 15:03:32;;;;;;;2.10;0.90;;;25.30;70.60;;;;;;6160576;23;20016;-87
2022/09/04 15:08:37;;;;;;;1.83;0.90;;;25.30;70.40;;;;;;6211060;23;20020;-86
2022/09/04 15:11:09;;;;;;;2.47;0.90;;;25.30;70.40;;;;;;6211492;23;20414;-83
2022/09/04 15:13:43;;;;;;;1.85;0.82;;;25.30;70.30;;;;;;6185001;23;20023;-85
2022/09/04 15:16:56;;;;;;;;;;;;;;;;;;;;;
2022/09/04 15:19:55;;;;;;;1.52;0.90;;;25.20;70.70;;;;;;6184792;23;20048;-88
2022/09/04 15:27:53;;;;;;;2.40;0.90;;;25.30;70.60;;;;;;6210180;23;20032;-90
2022/09/04 15:30:48;;;;;;;1.67;0.85;;;25.30;70.60;;;;;;6160444;23;20017;-88
2022/09/04 15:33:38;;;;;;;2.53;1.00;;;25.30;70.80;;;;;;6161083;23;20017;-90
2022/09/04 15:38:33;;;;;;;;;;;25.30;70.60;;;;;;6209539;23;20073;-89
2022/09/04 15:42:49;;;;;;;1.77;0.70;;;25.30;70.40;;;;;;6160261;23;19923;-88